Haywood, West Virginia
Current Conditions -  °F | °C
As of 4:53 PM on Wednesday 28 Jan 2015 (Local Time) from KCKB Reporting Station
Clear Clear  
Wind Chill: 18°   Ceiling: Unl
Heat Index: 25°   Visibility: 10mi
Dew Point: 13°   Wind: 6mph
Humidity: 60%   Direction: 180°S
Pressure: 30.31"   Gusts: NA
Location:  39.38°N, 80.34°W
Report Text: KCKB 282153Z 18005KT 10SM CLR M04/M11 A3031 RMK AO2 SLP278 T10391106
Loading
Personal Weather Stations






























Interactive Weather Map New forecast layout! Learn more

10-Day Weather Forecast

Advertisements
Track Severe Weather on mobile